Accueil
METAR-TAF:

METAR-TAF

Aéroports :

Derby, Australie

latitude: 17-34-53S, longitude: 123-49-42E, altitude: 91 m

Observation

Le bulletin a été fait il y a 42 minutes, à 12:30 UTC
Vent 9 kt de sud/sud-est
Température 24°C
Humidité 31%
Pression 1015 hPa
Visibilité 10 km ou plus

METAR: YCIN 221230Z AUTO 15009KT 9999 // NCD 24/06 Q1015 RF00.0/000.0

Heure: 21:12 (13:12 UTC)

Prévision

Le bulletin a été fait il y a 7 heures et 6 minutes, à 06:06 UTC
Prévision valable du 22 à 08 UTC au 22 à 20 UTC
Vent 10 kt de sud-est
Visibilité 10 km ou plus
pas de nuages en-dessous de 1500 mètres et pas de cumulonimbus.

TAF: YCIN 220606Z 2208/2220 14010KT CAVOK

Observations et prévisions météorologiques de plus de 4000 aéroports (messages METAR et TAF).

Les stations disponibles sont représentées par des disques jaunes et rouges sur la carte.

Passer la souris dessus pour voir le nom de la station.

Cliquer dessus pour voir les observations et prévisions météorologiques.

Pour changer de carte: cliquez sur les boutons verts avec une croix noire pour zoomer, sur le bouton vert avec un tiret pour effectuer un zoom arrière, ou sur les flèches vertes pour les cartes adjacentes.


METAR-TAF: